Share

Hibbing, MN

Chisholm-hibbing (KHIB) Elev 1352 ft | 47.39 °N, 92.84 °W | Change Station

Current weather conditions updated 1 hour ago

Overcast
Overcast
30 °F
Feels Like 21 °F
N
10
Wind Variable Wind from North
Sunrise 6:19 AM
Sunset 8:03 PM
Moon Waning Gibbous

Today is forecast to be Much Warmer than yesterday.

Pressure 30.21 in
Visibility 10.0 miles
Clouds Mostly Cloudy 2600 ft
Overcast 4800 ft
Windchill 21 °F
Dew Point 21 °F
Humidity 69%
Rainfall 0.00 in
Snow Depth Not available.
UV 1 out of 16
Pollen 2.80 out of 12
Air Quality Not available.
Flu Activity Sporadic
SPECI KHIB 171511Z AUTO 36009KT 10SM BKN026 OVC048 M01/M06 A3021 RMK AO2 UPB1457E05 P0000 T10111061

More Conditions Fewer Conditions

Pressure 30.21 in
Visibility 10.0 miles
Clouds Mostly Cloudy 2600 ft
Overcast 4800 ft
Windchill 21 °F
Dew Point 21 °F
Humidity 69%
Rainfall 0.00 in
Snow Depth Not available.
UV 1 out of 16
Pollen 2.80 out of 12
Air Quality Not available.
Flu Activity Sporadic
SPECI KHIB 171511Z AUTO 36009KT 10SM BKN026 OVC048 M01/M06 A3021 RMK AO2 UPB1457E05 P0000 T10111061

More Conditions Fewer Conditions

10-Day Forecast

Almanac

Astronomy

Apr. 17, 2014 Rise Set
Actual Time 6:19 AM CDT 8:03 PM CDT
Civil Twilight 5:46 AM CDT 8:36 PM CDT
Nautical Twilight 5:07 AM CDT 9:15 PM CDT
Astronomical Twilight 4:23 AM CDT 9:59 PM CDT
Moon 10:58 PM CDT 7:44 AM CDT
Length of Visible Light 14h 49m
Length of Day
13h 44m
Tomorrow will be 3m 15s longer.
Waning Gibbous, 93% of the Moon is Illuminated
Today
Waning Gibbous
Apr 22
Last Quarter
Apr 29
New
May 6
First Quarter
May 14
Full

Today's Extremes

State Highs State Lows

Community

  • New Day
    New Day
  • Lake Michigan Sunrise
    Lake Michigan Sunrise
  • sunset from izmir, narlıdere
    sunset from izmir, narlıdere
  • oregon cherry
    oregon cherry
  • Sunset over the Bay
    Sunset over the Bay

WunderPhotos

Upload Photos

1,702,066 photos uploaded!

Nearby

Snow Depth

Station Depth Elevation
No new snow has been reported.

Coastal Water Temperatures

Place Temperature
No Stations Reporting

Earthquake Activity

City Distance Mag. Time & Date
No recent earthquake activity has been reported nearby.
Minimum magnitude displayed is 2.5.

Nearby Weather Stations

Station Location Temp. Windchill Dew Point Humidity Wind Precip. Elev Updated Type
RAWS HIBBING MN, Hibbing, MN 30 °F 20 °F 22 °F 72% North  at  12 mph 0.00 in / hr 1350 ft 10:07 AM CDT MADIS

Show More Stations Show Fewer Stations

What do you think?

We're not finished. Please let us know what you like, what you don't like, and what you are still missing.